sensor_id;sensor_type;location;lat;lon;timestamp;P1;P2;P0
64861;PMS5003;62652;42.274;-71.436;2023-03-13T00:00:00;2.90;1.37;0.00
64861;PMS5003;62652;42.274;-71.436;2023-03-13T00:01:01;1.30;1.30;0.77
64861;PMS5003;62652;42.274;-71.436;2023-03-13T00:02:00;2.77;0.67;0.00
64861;PMS5003;62652;42.274;-71.436;2023-03-13T00:03:00;1.00;1.00;0.00
64861;PMS5003;62652;42.274;-71.436;2023-03-13T00:04:01;1.63;0.57;0.00
64861;PMS5003;62652;42.274;-71.436;2023-03-13T00:05:00;1.30;0.77;0.20
64861;PMS5003;62652;42.274;-71.436;2023-03-13T00:06:00;2.27;1.57;0.47
64861;PMS5003;62652;42.274;-71.436;2023-03-13T00:07:00;1.80;1.00;0.17
64861;PMS5003;62652;42.274;-71.436;2023-03-13T00:08:00;0.40;0.40;0.03
64861;PMS5003;62652;42.274;-71.436;2023-03-13T00:09:01;2.23;1.47;1.00
64861;PMS5003;62652;42.274;-71.436;2023-03-13T00:10:00;1.97;1.97;0.33
64861;PMS5003;62652;42.274;-71.436;2023-03-13T00:11:01;2.60;1.10;0.40
64861;PMS5003;62652;42.274;-71.436;2023-03-13T00:12:00;1.63;1.23;0.07
64861;PMS5003;62652;42.274;-71.436;2023-03-13T00:13:00;0.90;0.90;0.00
64861;PMS5003;62652;42.274;-71.436;2023-03-13T00:14:01;3.10;2.10;1.00
64861;PMS5003;62652;42.274;-71.436;2023-03-13T00:15:01;1.00;1.00;0.37
64861;PMS5003;62652;42.274;-71.436;2023-03-13T00:16:01;1.00;1.00;0.47
64861;PMS5003;62652;42.274;-71.436;2023-03-13T00:17:00;1.70;1.03;0.03
64861;PMS5003;62652;42.274;-71.436;2023-03-13T00:18:00;1.00;0.87;0.00
64861;PMS5003;62652;42.274;-71.436;2023-03-13T00:19:00;4.03;3.27;0.77
64861;PMS5003;62652;42.274;-71.436;2023-03-13T00:20:00;2.30;2.10;0.93
64861;PMS5003;62652;42.274;-71.436;2023-03-13T00:21:01;1.00;0.27;0.00
64861;PMS5003;62652;42.274;-71.436;2023-03-13T00:22:00;2.77;1.13;0.90
64861;PMS5003;62652;42.274;-71.436;2023-03-13T00:23:00;2.20;1.87;0.53
64861;PMS5003;62652;42.274;-71.436;2023-03-13T00:24:00;1.07;0.50;0.00
64861;PMS5003;62652;42.274;-71.436;2023-03-13T00:25:00;3.23;1.60;0.63
64861;PMS5003;62652;42.274;-71.436;2023-03-13T00:26:01;1.93;1.67;1.00
64861;PMS5003;62652;42.274;-71.436;2023-03-13T00:27:00;1.30;0.97;0.27
64861;PMS5003;62652;42.274;-71.436;2023-03-13T00:28:00;3.10;2.13;1.00
64861;PMS5003;62652;42.274;-71.436;2023-03-13T00:29:00;2.77;2.43;1.70
64861;PMS5003;62652;42.274;-71.436;2023-03-13T00:30:00;1.33;1.13;0.43
64861;PMS5003;62652;42.274;-71.436;2023-03-13T00:31:01;4.33;3.40;1.97
64861;PMS5003;62652;42.274;-71.436;2023-03-13T00:32:00;11.00;10.53;6.90
64861;PMS5003;62652;42.274;-71.436;2023-03-13T00:33:00;5.73;4.43;2.63
64861;PMS5003;62652;42.274;-71.436;2023-03-13T00:34:01;4.20;2.73;1.40
64861;PMS5003;62652;42.274;-71.436;2023-03-13T00:35:00;4.87;3.97;2.77
64861;PMS5003;62652;42.274;-71.436;2023-03-13T00:36:01;6.60;5.40;3.00
64861;PMS5003;62652;42.274;-71.436;2023-03-13T00:37:01;5.93;4.30;3.00
64861;PMS5003;62652;42.274;-71.436;2023-03-13T00:38:00;4.40;3.87;2.00
64861;PMS5003;62652;42.274;-71.436;2023-03-13T00:39:00;8.27;7.07;5.13
64861;PMS5003;62652;42.274;-71.436;2023-03-13T00:40:00;4.47;3.87;2.23
64861;PMS5003;62652;42.274;-71.436;2023-03-13T00:41:01;4.60;4.50;3.13
64861;PMS5003;62652;42.274;-71.436;2023-03-13T00:42:00;4.23;3.97;2.83
64861;PMS5003;62652;42.274;-71.436;2023-03-13T00:43:00;3.77;3.77;2.47
64861;PMS5003;62652;42.274;-71.436;2023-03-13T00:44:00;5.00;4.20;1.90
64861;PMS5003;62652;42.274;-71.436;2023-03-13T00:45:00;4.17;3.70;1.93
64861;PMS5003;62652;42.274;-71.436;2023-03-13T00:46:00;1.63;1.63;1.00
64861;PMS5003;62652;42.274;-71.436;2023-03-13T00:47:00;2.40;2.40;0.93
64861;PMS5003;62652;42.274;-71.436;2023-03-13T00:48:00;3.67;3.00;1.20
64861;PMS5003;62652;42.274;-71.436;2023-03-13T00:49:01;4.17;3.80;2.00
64861;PMS5003;62652;42.274;-71.436;2023-03-13T00:50:00;4.13;3.83;2.00
64861;PMS5003;62652;42.274;-71.436;2023-03-13T00:51:00;2.57;2.33;1.00
64861;PMS5003;62652;42.274;-71.436;2023-03-13T00:52:00;6.03;4.00;2.90
64861;PMS5003;62652;42.274;-71.436;2023-03-13T00:53:00;8.20;7.10;4.63
64861;PMS5003;62652;42.274;-71.436;2023-03-13T00:54:00;4.07;4.00;2.70
64861;PMS5003;62652;42.274;-71.436;2023-03-13T00:55:00;8.90;8.13;4.57
64861;PMS5003;62652;42.274;-71.436;2023-03-13T00:56:01;8.37;6.93;4.93
64861;PMS5003;62652;42.274;-71.436;2023-03-13T00:57:00;6.77;6.27;4.13
64861;PMS5003;62652;42.274;-71.436;2023-03-13T00:58:00;6.87;5.60;3.53
64861;PMS5003;62652;42.274;-71.436;2023-03-13T00:59:01;4.63;4.17;2.10
64861;PMS5003;62652;42.274;-71.436;2023-03-13T01:00:00;4.33;2.73;2.00
64861;PMS5003;62652;42.274;-71.436;2023-03-13T01:01:08;4.67;2.83;1.63
64861;PMS5003;62652;42.274;-71.436;2023-03-13T01:02:00;4.37;4.20;3.10
64861;PMS5003;62652;42.274;-71.436;2023-03-13T01:03:00;4.90;3.77;2.87
64861;PMS5003;62652;42.274;-71.436;2023-03-13T01:04:01;4.87;4.47;2.97
64861;PMS5003;62652;42.274;-71.436;2023-03-13T01:05:00;7.97;6.60;4.07
64861;PMS5003;62652;42.274;-71.436;2023-03-13T01:06:01;15.10;13.50;8.43
64861;PMS5003;62652;42.274;-71.436;2023-03-13T01:07:00;14.23;12.80;6.47
64861;PMS5003;62652;42.274;-71.436;2023-03-13T01:08:00;5.33;4.93;3.17
64861;PMS5003;62652;42.274;-71.436;2023-03-13T01:09:01;7.80;6.93;3.80
64861;PMS5003;62652;42.274;-71.436;2023-03-13T01:10:00;8.20;5.13;3.93
64861;PMS5003;62652;42.274;-71.436;2023-03-13T01:11:01;7.10;6.37;4.30
64861;PMS5003;62652;42.274;-71.436;2023-03-13T01:12:00;8.57;6.60;4.00
64861;PMS5003;62652;42.274;-71.436;2023-03-13T01:13:01;7.13;7.13;4.50
64861;PMS5003;62652;42.274;-71.436;2023-03-13T01:14:01;13.93;11.03;7.87
64861;PMS5003;62652;42.274;-71.436;2023-03-13T01:15:00;6.80;6.60;3.97
64861;PMS5003;62652;42.274;-71.436;2023-03-13T01:16:01;5.77;5.00;2.50
64861;PMS5003;62652;42.274;-71.436;2023-03-13T01:17:00;7.97;6.50;4.27
64861;PMS5003;62652;42.274;-71.436;2023-03-13T01:18:00;10.07;7.80;5.67
64861;PMS5003;62652;42.274;-71.436;2023-03-13T01:19:02;7.53;5.80;4.03
64861;PMS5003;62652;42.274;-71.436;2023-03-13T01:20:00;9.77;8.33;5.87
64861;PMS5003;62652;42.274;-71.436;2023-03-13T01:21:01;8.03;6.27;4.00
64861;PMS5003;62652;42.274;-71.436;2023-03-13T01:22:00;7.50;6.93;3.93
64861;PMS5003;62652;42.274;-71.436;2023-03-13T01:23:00;8.87;8.57;4.30
64861;PMS5003;62652;42.274;-71.436;2023-03-13T01:24:00;4.03;3.80;2.03
64861;PMS5003;62652;42.274;-71.436;2023-03-13T01:25:00;4.80;4.43;2.50
64861;PMS5003;62652;42.274;-71.436;2023-03-13T01:26:03;3.80;3.43;2.50
64861;PMS5003;62652;42.274;-71.436;2023-03-13T01:27:00;5.57;4.57;3.27
64861;PMS5003;62652;42.274;-71.436;2023-03-13T01:28:00;4.60;3.17;1.37
64861;PMS5003;62652;42.274;-71.436;2023-03-13T01:29:00;5.53;4.60;3.27
64861;PMS5003;62652;42.274;-71.436;2023-03-13T01:30:00;4.40;4.20;2.43
64861;PMS5003;62652;42.274;-71.436;2023-03-13T01:31:01;5.67;4.27;2.07
64861;PMS5003;62652;42.274;-71.436;2023-03-13T01:32:01;7.67;5.67;2.83
64861;PMS5003;62652;42.274;-71.436;2023-03-13T01:33:00;5.67;4.83;2.80
64861;PMS5003;62652;42.274;-71.436;2023-03-13T01:34:01;4.00;4.00;2.67
64861;PMS5003;62652;42.274;-71.436;2023-03-13T01:35:00;3.47;3.47;2.03
64861;PMS5003;62652;42.274;-71.436;2023-03-13T01:36:01;3.47;2.93;1.77
64861;PMS5003;62652;42.274;-71.436;2023-03-13T01:37:00;4.40;3.53;2.53
64861;PMS5003;62652;42.274;-71.436;2023-03-13T01:38:00;4.43;2.50;1.37
64861;PMS5003;62652;42.274;-71.436;2023-03-13T01:39:00;3.97;3.57;1.90
64861;PMS5003;62652;42.274;-71.436;2023-03-13T01:40:00;3.27;2.30;1.77
64861;PMS5003;62652;42.274;-71.436;2023-03-13T01:41:00;3.90;2.77;1.80
64861;PMS5003;62652;42.274;-71.436;2023-03-13T01:42:02;3.90;3.03;2.07
64861;PMS5003;62652;42.274;-71.436;2023-03-13T01:43:03;4.40;3.53;2.03
64861;PMS5003;62652;42.274;-71.436;2023-03-13T01:44:00;4.00;3.83;2.83
64861;PMS5003;62652;42.274;-71.436;2023-03-13T01:45:00;8.03;6.13;4.80
64861;PMS5003;62652;42.274;-71.436;2023-03-13T01:46:03;6.93;4.97;3.83
64861;PMS5003;62652;42.274;-71.436;2023-03-13T01:47:00;5.63;4.30;2.00
64861;PMS5003;62652;42.274;-71.436;2023-03-13T01:48:00;6.03;4.63;2.83
64861;PMS5003;62652;42.274;-71.436;2023-03-13T01:49:02;8.97;5.83;3.97
64861;PMS5003;62652;42.274;-71.436;2023-03-13T01:50:00;13.23;12.10;6.43
64861;PMS5003;62652;42.274;-71.436;2023-03-13T01:51:01;11.67;8.73;4.30
64861;PMS5003;62652;42.274;-71.436;2023-03-13T01:52:01;7.73;7.33;5.00
64861;PMS5003;62652;42.274;-71.436;2023-03-13T01:53:00;5.80;5.10;3.57
64861;PMS5003;62652;42.274;-71.436;2023-03-13T01:54:02;4.80;4.57;3.60
64861;PMS5003;62652;42.274;-71.436;2023-03-13T01:55:01;5.20;4.27;2.93
64861;PMS5003;62652;42.274;-71.436;2023-03-13T01:56:01;5.00;4.70;2.43
64861;PMS5003;62652;42.274;-71.436;2023-03-13T01:57:01;3.10;2.93;2.37
64861;PMS5003;62652;42.274;-71.436;2023-03-13T01:58:00;3.53;2.70;1.47
64861;PMS5003;62652;42.274;-71.436;2023-03-13T01:59:00;8.07;6.63;4.33
64861;PMS5003;62652;42.274;-71.436;2023-03-13T02:00:01;6.80;6.40;4.30
64861;PMS5003;62652;42.274;-71.436;2023-03-13T02:01:00;10.23;8.20;5.83
64861;PMS5003;62652;42.274;-71.436;2023-03-13T02:02:01;10.80;9.30;6.00
64861;PMS5003;62652;42.274;-71.436;2023-03-13T02:03:02;6.87;5.77;3.37
64861;PMS5003;62652;42.274;-71.436;2023-03-13T02:04:00;7.47;6.20;4.53
64861;PMS5003;62652;42.274;-71.436;2023-03-13T02:05:01;4.20;4.10;2.73
64861;PMS5003;62652;42.274;-71.436;2023-03-13T02:06:00;7.87;7.60;3.43
64861;PMS5003;62652;42.274;-71.436;2023-03-13T02:07:01;12.93;11.93;7.50
64861;PMS5003;62652;42.274;-71.436;2023-03-13T02:08:03;13.90;12.70;7.43
64861;PMS5003;62652;42.274;-71.436;2023-03-13T02:09:01;10.70;8.47;5.30
64861;PMS5003;62652;42.274;-71.436;2023-03-13T02:10:00;8.63;6.67;4.70
64861;PMS5003;62652;42.274;-71.436;2023-03-13T02:11:02;10.80;8.83;5.83
64861;PMS5003;62652;42.274;-71.436;2023-03-13T02:12:02;7.60;6.50;4.30
64861;PMS5003;62652;42.274;-71.436;2023-03-13T02:13:00;8.87;7.43;5.33
64861;PMS5003;62652;42.274;-71.436;2023-03-13T02:14:00;9.30;7.90;5.93
64861;PMS5003;62652;42.274;-71.436;2023-03-13T02:15:01;8.17;8.07;5.20
64861;PMS5003;62652;42.274;-71.436;2023-03-13T02:16:01;6.80;6.50;4.67
64861;PMS5003;62652;42.274;-71.436;2023-03-13T02:17:00;8.03;6.97;5.10
64861;PMS5003;62652;42.274;-71.436;2023-03-13T02:18:00;6.97;6.13;4.27
64861;PMS5003;62652;42.274;-71.436;2023-03-13T02:19:01;4.37;3.97;2.10
64861;PMS5003;62652;42.274;-71.436;2023-03-13T02:20:01;6.20;5.30;3.50
64861;PMS5003;62652;42.274;-71.436;2023-03-13T02:21:01;5.07;4.80;3.00
64861;PMS5003;62652;42.274;-71.436;2023-03-13T02:22:01;5.53;5.27;3.30
64861;PMS5003;62652;42.274;-71.436;2023-03-13T02:23:01;6.03;4.10;2.17
64861;PMS5003;62652;42.274;-71.436;2023-03-13T02:24:02;6.57;6.17;3.00
64861;PMS5003;62652;42.274;-71.436;2023-03-13T02:25:01;6.37;5.90;3.53
64861;PMS5003;62652;42.274;-71.436;2023-03-13T02:26:00;17.43;16.87;13.33
64861;PMS5003;62652;42.274;-71.436;2023-03-13T02:27:01;12.43;12.27;8.83
64861;PMS5003;62652;42.274;-71.436;2023-03-13T02:28:02;8.27;7.07;5.33
64861;PMS5003;62652;42.274;-71.436;2023-03-13T02:29:00;10.40;9.73;6.47
64861;PMS5003;62652;42.274;-71.436;2023-03-13T02:30:00;4.50;4.20;2.37
64861;PMS5003;62652;42.274;-71.436;2023-03-13T02:31:00;4.57;4.33;2.90
64861;PMS5003;62652;42.274;-71.436;2023-03-13T02:32:00;4.83;3.57;2.00
64861;PMS5003;62652;42.274;-71.436;2023-03-13T02:33:00;5.37;4.53;3.07
64861;PMS5003;62652;42.274;-71.436;2023-03-13T02:34:00;11.83;8.87;6.13
64861;PMS5003;62652;42.274;-71.436;2023-03-13T02:35:01;14.37;13.33;8.73
64861;PMS5003;62652;42.274;-71.436;2023-03-13T02:36:01;9.27;8.47;6.97
64861;PMS5003;62652;42.274;-71.436;2023-03-13T02:37:00;7.80;6.63;5.00
64861;PMS5003;62652;42.274;-71.436;2023-03-13T02:38:03;9.50;8.80;6.37
64861;PMS5003;62652;42.274;-71.436;2023-03-13T02:39:01;7.63;6.53;4.77
64861;PMS5003;62652;42.274;-71.436;2023-03-13T02:40:01;4.77;4.73;2.93
64861;PMS5003;62652;42.274;-71.436;2023-03-13T02:41:00;5.30;4.20;3.00
64861;PMS5003;62652;42.274;-71.436;2023-03-13T02:42:00;5.77;4.73;3.00
64861;PMS5003;62652;42.274;-71.436;2023-03-13T02:43:02;4.17;3.93;2.10
64861;PMS5003;62652;42.274;-71.436;2023-03-13T02:44:00;6.93;6.00;2.27
64861;PMS5003;62652;42.274;-71.436;2023-03-13T02:45:00;5.63;3.80;2.77
64861;PMS5003;62652;42.274;-71.436;2023-03-13T02:46:01;5.13;3.37;2.23
64861;PMS5003;62652;42.274;-71.436;2023-03-13T02:47:00;4.53;4.23;2.67
64861;PMS5003;62652;42.274;-71.436;2023-03-13T02:48:00;5.90;4.20;2.23
64861;PMS5003;62652;42.274;-71.436;2023-03-13T02:49:12;4.57;4.37;2.00
64861;PMS5003;62652;42.274;-71.436;2023-03-13T02:50:00;4.80;3.67;1.97
64861;PMS5003;62652;42.274;-71.436;2023-03-13T02:51:01;7.07;5.23;2.83
64861;PMS5003;62652;42.274;-71.436;2023-03-13T02:52:03;5.13;4.23;2.73
64861;PMS5003;62652;42.274;-71.436;2023-03-13T02:53:02;6.13;5.03;2.00
64861;PMS5003;62652;42.274;-71.436;2023-03-13T02:54:02;4.53;3.93;2.57
64861;PMS5003;62652;42.274;-71.436;2023-03-13T02:55:02;9.03;6.33;3.97
64861;PMS5003;62652;42.274;-71.436;2023-03-13T02:56:00;6.73;5.33;3.17
64861;PMS5003;62652;42.274;-71.436;2023-03-13T02:58:00;4.87;4.83;3.00
64861;PMS5003;62652;42.274;-71.436;2023-03-13T02:59:00;4.80;4.70;3.13
64861;PMS5003;62652;42.274;-71.436;2023-03-13T03:00:01;6.27;4.83;3.17
64861;PMS5003;62652;42.274;-71.436;2023-03-13T03:01:00;7.23;4.63;2.67
64861;PMS5003;62652;42.274;-71.436;2023-03-13T03:02:00;6.13;5.03;3.37
64861;PMS5003;62652;42.274;-71.436;2023-03-13T03:03:00;4.67;4.23;2.23
64861;PMS5003;62652;42.274;-71.436;2023-03-13T03:04:00;5.33;4.93;3.07
64861;PMS5003;62652;42.274;-71.436;2023-03-13T03:05:00;6.90;6.10;4.40
64861;PMS5003;62652;42.274;-71.436;2023-03-13T03:06:00;7.23;5.90;3.67
64861;PMS5003;62652;42.274;-71.436;2023-03-13T03:07:00;6.47;5.00;3.20
64861;PMS5003;62652;42.274;-71.436;2023-03-13T03:08:00;5.37;4.67;3.00
64861;PMS5003;62652;42.274;-71.436;2023-03-13T03:09:00;6.57;5.67;3.43
64861;PMS5003;62652;42.274;-71.436;2023-03-13T03:10:00;7.07;5.70;3.17
64861;PMS5003;62652;42.274;-71.436;2023-03-13T03:11:00;6.43;6.43;3.87
64861;PMS5003;62652;42.274;-71.436;2023-03-13T03:12:00;7.77;6.87;3.97
64861;PMS5003;62652;42.274;-71.436;2023-03-13T03:13:00;9.30;7.70;3.97
64861;PMS5003;62652;42.274;-71.436;2023-03-13T03:14:00;6.60;5.90;3.40
64861;PMS5003;62652;42.274;-71.436;2023-03-13T03:15:00;6.30;5.30;4.00
64861;PMS5003;62652;42.274;-71.436;2023-03-13T03:16:04;5.33;5.10;3.63
64861;PMS5003;62652;42.274;-71.436;2023-03-13T03:17:00;7.10;5.63;3.17
64861;PMS5003;62652;42.274;-71.436;2023-03-13T03:18:00;5.73;5.40;3.27
64861;PMS5003;62652;42.274;-71.436;2023-03-13T03:19:00;6.07;4.33;2.60
64861;PMS5003;62652;42.274;-71.436;2023-03-13T03:20:00;6.33;5.47;4.33
64861;PMS5003;62652;42.274;-71.436;2023-03-13T03:21:00;8.23;5.73;3.00
64861;PMS5003;62652;42.274;-71.436;2023-03-13T03:22:00;5.13;4.60;3.07
64861;PMS5003;62652;42.274;-71.436;2023-03-13T03:23:00;5.37;4.83;3.00
64861;PMS5003;62652;42.274;-71.436;2023-03-13T03:24:00;6.50;5.47;2.53
64861;PMS5003;62652;42.274;-71.436;2023-03-13T03:25:00;6.27;5.23;3.80
64861;PMS5003;62652;42.274;-71.436;2023-03-13T03:26:00;5.57;5.50;3.33
64861;PMS5003;62652;42.274;-71.436;2023-03-13T03:27:00;10.17;5.57;3.83
64861;PMS5003;62652;42.274;-71.436;2023-03-13T03:28:00;5.27;4.93;3.13
64861;PMS5003;62652;42.274;-71.436;2023-03-13T03:29:00;10.83;8.87;4.70
64861;PMS5003;62652;42.274;-71.436;2023-03-13T03:30:00;5.90;5.53;3.73
64861;PMS5003;62652;42.274;-71.436;2023-03-13T03:31:02;6.27;5.57;3.60
64861;PMS5003;62652;42.274;-71.436;2023-03-13T03:32:00;4.90;4.70;2.80
64861;PMS5003;62652;42.274;-71.436;2023-03-13T03:33:01;6.57;5.83;2.80
64861;PMS5003;62652;42.274;-71.436;2023-03-13T03:34:00;5.33;4.67;2.77
64861;PMS5003;62652;42.274;-71.436;2023-03-13T03:35:00;4.77;4.00;2.33
64861;PMS5003;62652;42.274;-71.436;2023-03-13T03:36:00;7.43;6.70;3.10
64861;PMS5003;62652;42.274;-71.436;2023-03-13T03:37:00;7.33;6.80;4.00
64861;PMS5003;62652;42.274;-71.436;2023-03-13T03:38:00;6.83;6.30;4.00
64861;PMS5003;62652;42.274;-71.436;2023-03-13T03:39:00;5.67;5.50;2.97
64861;PMS5003;62652;42.274;-71.436;2023-03-13T03:40:00;5.50;5.23;3.17
64861;PMS5003;62652;42.274;-71.436;2023-03-13T03:41:00;6.23;5.23;3.23
64861;PMS5003;62652;42.274;-71.436;2023-03-13T03:42:00;7.83;5.20;3.27
64861;PMS5003;62652;42.274;-71.436;2023-03-13T03:43:00;6.40;5.23;4.00
64861;PMS5003;62652;42.274;-71.436;2023-03-13T03:44:00;6.77;6.17;3.80
64861;PMS5003;62652;42.274;-71.436;2023-03-13T03:45:00;6.40;5.53;3.80
64861;PMS5003;62652;42.274;-71.436;2023-03-13T03:46:00;7.57;5.73;4.00
64861;PMS5003;62652;42.274;-71.436;2023-03-13T03:47:00;6.50;5.67;3.70
64861;PMS5003;62652;42.274;-71.436;2023-03-13T03:48:00;12.27;10.77;6.17
64861;PMS5003;62652;42.274;-71.436;2023-03-13T03:49:00;10.37;8.70;4.97
64861;PMS5003;62652;42.274;-71.436;2023-03-13T03:50:00;9.70;7.50;5.57
64861;PMS5003;62652;42.274;-71.436;2023-03-13T03:51:00;7.10;6.33;4.20
64861;PMS5003;62652;42.274;-71.436;2023-03-13T03:52:00;6.73;6.20;3.87
64861;PMS5003;62652;42.274;-71.436;2023-03-13T03:53:00;8.53;7.13;3.27
64861;PMS5003;62652;42.274;-71.436;2023-03-13T03:54:00;6.53;5.17;2.33
64861;PMS5003;62652;42.274;-71.436;2023-03-13T03:55:00;4.43;3.67;2.63
64861;PMS5003;62652;42.274;-71.436;2023-03-13T03:56:00;8.17;5.90;2.83
64861;PMS5003;62652;42.274;-71.436;2023-03-13T03:57:00;5.50;4.40;3.00
64861;PMS5003;62652;42.274;-71.436;2023-03-13T03:58:00;3.70;3.13;1.70
64861;PMS5003;62652;42.274;-71.436;2023-03-13T03:59:00;5.83;5.00;2.50
64861;PMS5003;62652;42.274;-71.436;2023-03-13T04:00:00;5.13;4.37;2.90
64861;PMS5003;62652;42.274;-71.436;2023-03-13T04:01:00;4.67;4.33;2.23
64861;PMS5003;62652;42.274;-71.436;2023-03-13T04:02:00;6.23;5.50;3.13
64861;PMS5003;62652;42.274;-71.436;2023-03-13T04:03:00;4.13;3.67;2.63
64861;PMS5003;62652;42.274;-71.436;2023-03-13T04:04:00;5.30;4.90;2.80
64861;PMS5003;62652;42.274;-71.436;2023-03-13T04:05:00;7.20;5.43;3.30
64861;PMS5003;62652;42.274;-71.436;2023-03-13T04:06:00;9.70;5.80;2.13
64861;PMS5003;62652;42.274;-71.436;2023-03-13T04:07:00;5.70;4.77;3.33
64861;PMS5003;62652;42.274;-71.436;2023-03-13T04:08:00;7.30;5.40;3.00
64861;PMS5003;62652;42.274;-71.436;2023-03-13T04:09:00;6.77;5.33;3.43
64861;PMS5003;62652;42.274;-71.436;2023-03-13T04:10:00;6.47;4.83;3.53
64861;PMS5003;62652;42.274;-71.436;2023-03-13T04:11:00;6.87;5.80;3.10
64861;PMS5003;62652;42.274;-71.436;2023-03-13T04:12:00;4.40;4.03;3.03
64861;PMS5003;62652;42.274;-71.436;2023-03-13T04:13:00;5.87;5.20;3.13
64861;PMS5003;62652;42.274;-71.436;2023-03-13T04:14:00;11.13;7.20;3.27
64861;PMS5003;62652;42.274;-71.436;2023-03-13T04:15:00;7.27;6.17;3.17
64861;PMS5003;62652;42.274;-71.436;2023-03-13T04:16:05;7.90;5.67;3.57
64861;PMS5003;62652;42.274;-71.436;2023-03-13T04:17:00;5.43;4.67;3.03
64861;PMS5003;62652;42.274;-71.436;2023-03-13T04:18:00;6.83;6.23;3.50
64861;PMS5003;62652;42.274;-71.436;2023-03-13T04:19:00;5.63;5.13;3.63
64861;PMS5003;62652;42.274;-71.436;2023-03-13T04:20:00;5.20;4.93;3.33
64861;PMS5003;62652;42.274;-71.436;2023-03-13T04:21:00;7.03;5.70;4.00
64861;PMS5003;62652;42.274;-71.436;2023-03-13T04:22:00;9.70;6.57;4.13
64861;PMS5003;62652;42.274;-71.436;2023-03-13T04:23:00;9.70;8.33;4.93
64861;PMS5003;62652;42.274;-71.436;2023-03-13T04:24:00;6.70;5.53;3.63
64861;PMS5003;62652;42.274;-71.436;2023-03-13T04:25:00;7.57;6.47;5.00
64861;PMS5003;62652;42.274;-71.436;2023-03-13T04:26:00;7.27;6.37;3.90
64861;PMS5003;62652;42.274;-71.436;2023-03-13T04:27:00;7.17;6.97;5.07
64861;PMS5003;62652;42.274;-71.436;2023-03-13T04:28:00;9.63;7.30;5.13
64861;PMS5003;62652;42.274;-71.436;2023-03-13T04:29:00;7.10;5.27;3.87
64861;PMS5003;62652;42.274;-71.436;2023-03-13T04:30:00;10.40;7.03;4.50
64861;PMS5003;62652;42.274;-71.436;2023-03-13T04:31:00;8.23;7.57;5.47
64861;PMS5003;62652;42.274;-71.436;2023-03-13T04:32:00;9.90;7.57;4.63
64861;PMS5003;62652;42.274;-71.436;2023-03-13T04:33:00;8.00;7.33;4.30
64861;PMS5003;62652;42.274;-71.436;2023-03-13T04:34:00;8.23;7.33;4.47
64861;PMS5003;62652;42.274;-71.436;2023-03-13T04:35:00;8.13;7.27;4.63
64861;PMS5003;62652;42.274;-71.436;2023-03-13T04:36:00;9.83;8.20;5.17
64861;PMS5003;62652;42.274;-71.436;2023-03-13T04:37:00;9.40;8.00;4.37
64861;PMS5003;62652;42.274;-71.436;2023-03-13T04:38:00;9.50;7.10;4.00
64861;PMS5003;62652;42.274;-71.436;2023-03-13T04:39:00;7.90;6.37;4.20
64861;PMS5003;62652;42.274;-71.436;2023-03-13T04:40:00;11.73;10.90;5.33
64861;PMS5003;62652;42.274;-71.436;2023-03-13T04:41:00;10.20;8.57;5.43
64861;PMS5003;62652;42.274;-71.436;2023-03-13T04:42:00;11.60;10.10;6.33
64861;PMS5003;62652;42.274;-71.436;2023-03-13T04:43:00;12.77;12.03;6.77
64861;PMS5003;62652;42.274;-71.436;2023-03-13T04:44:00;12.57;8.93;4.87
64861;PMS5003;62652;42.274;-71.436;2023-03-13T04:45:00;7.73;6.33;3.97
64861;PMS5003;62652;42.274;-71.436;2023-03-13T04:46:00;10.30;9.27;5.00
64861;PMS5003;62652;42.274;-71.436;2023-03-13T04:47:00;9.13;8.03;4.73
64861;PMS5003;62652;42.274;-71.436;2023-03-13T04:48:00;10.03;8.90;5.57
64861;PMS5003;62652;42.274;-71.436;2023-03-13T04:49:00;8.23;7.10;3.80
64861;PMS5003;62652;42.274;-71.436;2023-03-13T04:50:00;12.53;9.20;5.63
64861;PMS5003;62652;42.274;-71.436;2023-03-13T04:51:00;13.27;8.13;4.00
64861;PMS5003;62652;42.274;-71.436;2023-03-13T04:52:00;10.70;9.07;6.17
64861;PMS5003;62652;42.274;-71.436;2023-03-13T04:53:00;9.83;8.13;4.73
64861;PMS5003;62652;42.274;-71.436;2023-03-13T04:54:00;8.87;7.70;4.00
64861;PMS5003;62652;42.274;-71.436;2023-03-13T04:55:00;10.67;8.80;5.10
64861;PMS5003;62652;42.274;-71.436;2023-03-13T04:56:00;15.37;11.47;6.73
64861;PMS5003;62652;42.274;-71.436;2023-03-13T04:57:00;11.50;11.33;8.50
64861;PMS5003;62652;42.274;-71.436;2023-03-13T04:58:00;21.00;18.90;12.43
64861;PMS5003;62652;42.274;-71.436;2023-03-13T04:59:00;15.93;13.97;7.50
64861;PMS5003;62652;42.274;-71.436;2023-03-13T05:00:00;15.60;14.37;8.17
64861;PMS5003;62652;42.274;-71.436;2023-03-13T05:01:00;19.70;17.20;12.43
64861;PMS5003;62652;42.274;-71.436;2023-03-13T05:02:00;16.83;15.33;9.70
64861;PMS5003;62652;42.274;-71.436;2023-03-13T05:03:00;18.10;15.83;8.90
64861;PMS5003;62652;42.274;-71.436;2023-03-13T05:04:00;15.33;13.83;8.27
64861;PMS5003;62652;42.274;-71.436;2023-03-13T05:05:00;11.87;10.60;6.57
64861;PMS5003;62652;42.274;-71.436;2023-03-13T05:06:00;11.03;10.37;6.60
64861;PMS5003;62652;42.274;-71.436;2023-03-13T05:07:00;10.13;7.83;5.57
64861;PMS5003;62652;42.274;-71.436;2023-03-13T05:08:00;12.83;10.10;6.00
64861;PMS5003;62652;42.274;-71.436;2023-03-13T05:09:00;9.07;7.70;6.00
64861;PMS5003;62652;42.274;-71.436;2023-03-13T05:10:00;10.60;8.73;6.00
64861;PMS5003;62652;42.274;-71.436;2023-03-13T05:11:00;10.10;9.13;6.43
64861;PMS5003;62652;42.274;-71.436;2023-03-13T05:12:00;8.87;8.03;6.00
64861;PMS5003;62652;42.274;-71.436;2023-03-13T05:13:00;14.07;9.87;5.07
64861;PMS5003;62652;42.274;-71.436;2023-03-13T05:14:00;13.53;10.30;5.60
64861;PMS5003;62652;42.274;-71.436;2023-03-13T05:15:00;10.83;8.63;5.20
64861;PMS5003;62652;42.274;-71.436;2023-03-13T05:16:00;11.23;8.50;5.23
64861;PMS5003;62652;42.274;-71.436;2023-03-13T05:17:00;7.83;7.10;4.80
64861;PMS5003;62652;42.274;-71.436;2023-03-13T05:18:00;12.33;11.43;6.17
64861;PMS5003;62652;42.274;-71.436;2023-03-13T05:19:00;9.00;7.77;4.90
64861;PMS5003;62652;42.274;-71.436;2023-03-13T05:20:00;8.93;8.67;6.00
64861;PMS5003;62652;42.274;-71.436;2023-03-13T05:21:00;12.10;10.80;6.40
64861;PMS5003;62652;42.274;-71.436;2023-03-13T05:22:00;10.63;9.50;6.57
64861;PMS5003;62652;42.274;-71.436;2023-03-13T05:23:01;8.40;7.93;5.50
64861;PMS5003;62652;42.274;-71.436;2023-03-13T05:24:00;11.90;9.83;5.87
64861;PMS5003;62652;42.274;-71.436;2023-03-13T05:25:00;11.97;9.90;6.10
64861;PMS5003;62652;42.274;-71.436;2023-03-13T05:26:00;15.67;12.27;7.40
64861;PMS5003;62652;42.274;-71.436;2023-03-13T05:27:00;12.27;10.00;6.67
64861;PMS5003;62652;42.274;-71.436;2023-03-13T05:28:00;12.23;11.17;6.73
64861;PMS5003;62652;42.274;-71.436;2023-03-13T05:29:00;13.10;11.70;6.37
64861;PMS5003;62652;42.274;-71.436;2023-03-13T05:30:00;12.20;11.50;6.37
64861;PMS5003;62652;42.274;-71.436;2023-03-13T05:31:00;10.90;9.43;6.33
64861;PMS5003;62652;42.274;-71.436;2023-03-13T05:32:00;11.60;10.37;6.57
64861;PMS5003;62652;42.274;-71.436;2023-03-13T05:33:00;17.23;13.47;7.57
64861;PMS5003;62652;42.274;-71.436;2023-03-13T05:34:00;19.50;17.00;9.53
64861;PMS5003;62652;42.274;-71.436;2023-03-13T05:35:00;18.50;15.53;8.60
64861;PMS5003;62652;42.274;-71.436;2023-03-13T05:36:00;15.90;14.47;8.33
64861;PMS5003;62652;42.274;-71.436;2023-03-13T05:37:00;13.67;11.20;6.77
64861;PMS5003;62652;42.274;-71.436;2023-03-13T05:38:00;11.50;10.33;5.90
64861;PMS5003;62652;42.274;-71.436;2023-03-13T05:39:00;8.80;8.37;5.83
64861;PMS5003;62652;42.274;-71.436;2023-03-13T05:40:00;10.07;7.83;4.97